LRSV

Details ICAO LRSV (SCV)
Name STEFAN CEL MARE
Region Romania
Timezone Europe/Bucharest (UTC+2.0)
Plans Departing 4
Arriving 10
Stats Elevation 1,375 ft / 419 m (AMSL)
Location 47.687500° 26.354054°
Runways 1
Magnetic Variation 6.186° E
Sunrise 2017-12-16 05:58:32 UTC / 2017-12-16 07:58:32 Local
Sunset 2017-12-16 14:24:35 UTC / 2017-12-16 16:24:35 Local
Advertisement - Login to hide

Runways

ID Width Length Bearing (true) Bearing (mag) Surface Threshold Offset Overrun Length
16 98 ft / 30 m 5,888 ft / 1,795 m 163.05° 156.86° Concrete 0 ft / 0 m 0 ft / 0 m
34 98 ft / 30 m 5,888 ft / 1,795 m 343.06° 336.87° Concrete 0 ft / 0 m 0 ft / 0 m

Map

Weather


0- 5 10 15 20 25 30 35+ Temperature / ° C

Clouds and Precipitation
Forecast for 2017-12-16 06:00 UTC. Updated 11 minutes ago

Ground ~20,000 ft ~40,000 ft Winds

METAR

LRSV 160530Z 19003KT CAVOK 03/02 Q0996

TAF

Not found

Frequencies

Tower 118.30 MHz TWR
Approach 120.90 MHz PRECISION
Warning: Do not use this data for real-world aviation or navigation. No guarantee of current accuracy is given.